createdAt,value
2023-02-02T00:01:02.436Z,26.87
2023-02-02T00:03:32.720Z,26.81
2023-02-02T00:06:02.932Z,26.84
2023-02-02T00:08:33.123Z,26.79
2023-02-02T00:11:02.756Z,26.76
2023-02-02T00:13:32.456Z,26.73
2023-02-02T00:16:23.457Z,26.64
2023-02-02T00:18:54.134Z,26.61
2023-02-02T00:21:25.070Z,26.59
2023-02-02T00:23:56.453Z,26.53
2023-02-02T00:26:28.011Z,26.50
2023-02-02T00:28:58.546Z,26.50
2023-02-02T00:31:29.588Z,26.49
2023-02-02T00:34:01.001Z,26.49
2023-02-02T00:36:31.865Z,26.42
2023-02-02T00:39:01.988Z,26.42
2023-02-02T00:41:32.413Z,26.36
2023-02-02T00:44:21.077Z,26.35
2023-02-02T00:46:51.352Z,26.32
2023-02-02T00:49:20.819Z,26.32
2023-02-02T00:51:50.569Z,26.29
2023-02-02T00:54:20.795Z,26.30
2023-02-02T00:56:50.786Z,26.23
2023-02-02T00:59:20.747Z,26.20
2023-02-02T01:01:50.653Z,26.15
2023-02-02T01:04:20.601Z,26.12
2023-02-02T01:06:50.473Z,26.12
2023-02-02T01:09:20.478Z,26.09
2023-02-02T01:11:50.776Z,26.06
2023-02-02T01:14:20.902Z,26.08
2023-02-02T01:16:50.540Z,26.02
2023-02-02T01:19:21.003Z,25.99
2023-02-02T01:21:53.257Z,25.99
2023-02-02T01:24:23.636Z,25.92
2023-02-02T01:26:53.227Z,25.91
2023-02-02T01:29:23.044Z,25.85
2023-02-02T01:31:53.623Z,25.81
2023-02-02T01:34:23.822Z,25.79
2023-02-02T01:36:53.692Z,25.78
2023-02-02T01:39:24.692Z,25.72
2023-02-02T01:41:55.056Z,25.67
2023-02-02T01:45:01.979Z,25.62
2023-02-02T01:47:38.011Z,25.58
2023-02-02T01:50:10.617Z,25.57
2023-02-02T01:52:41.953Z,25.58
2023-02-02T01:55:15.623Z,25.54
2023-02-02T01:58:11.493Z,25.52
2023-02-02T02:00:46.937Z,25.52
2023-02-02T02:03:22.517Z,25.52
2023-02-02T02:05:56.176Z,25.52
2023-02-02T02:08:32.291Z,25.51
2023-02-02T02:11:02.971Z,25.45
2023-02-02T02:13:56.108Z,25.47
2023-02-02T02:16:47.931Z,25.42
2023-02-02T02:20:13.296Z,25.45
2023-02-02T02:23:04.547Z,25.44
2023-02-02T02:26:37.042Z,25.38
2023-02-02T02:29:33.791Z,25.35
2023-02-02T02:32:04.737Z,25.35
2023-02-02T02:35:05.477Z,25.33
2023-02-02T02:38:02.082Z,25.33
2023-02-02T02:40:59.839Z,25.30
2023-02-02T02:43:34.563Z,25.26
2023-02-02T02:46:06.762Z,25.26
2023-02-02T02:48:36.931Z,25.35
2023-02-02T02:51:31.220Z,25.37
2023-02-02T02:54:01.274Z,25.34
2023-02-02T02:56:45.582Z,25.40
2023-02-02T02:59:23.377Z,25.45
2023-02-02T03:02:01.015Z,25.50
2023-02-02T03:04:45.142Z,25.50
2023-02-02T03:07:28.006Z,25.47
2023-02-02T03:10:00.638Z,25.47
2023-02-02T03:12:30.791Z,25.47
2023-02-02T03:15:00.666Z,25.38
2023-02-02T03:17:30.503Z,25.31
2023-02-02T03:20:00.411Z,25.34
2023-02-02T03:22:29.952Z,25.44
2023-02-02T03:25:00.726Z,25.37
2023-02-02T03:27:31.401Z,25.40
2023-02-02T03:30:02.087Z,25.33
2023-02-02T03:32:32.269Z,25.30
2023-02-02T03:35:02.731Z,25.31
2023-02-02T03:37:32.848Z,25.10
2023-02-02T03:40:03.109Z,24.79
2023-02-02T03:42:33.236Z,24.90
2023-02-02T03:45:03.360Z,25.07
2023-02-02T03:47:33.261Z,24.94
2023-02-02T03:50:03.355Z,24.73
2023-02-02T03:52:33.423Z,24.75
2023-02-02T03:55:03.556Z,24.87
2023-02-02T03:57:33.648Z,24.97
2023-02-02T04:00:03.621Z,24.83
2023-02-02T04:02:41.801Z,24.80
2023-02-02T04:05:12.039Z,24.93
2023-02-02T04:07:42.045Z,25.06
2023-02-02T04:10:12.840Z,25.07
2023-02-02T04:12:42.906Z,25.03
2023-02-02T04:15:12.878Z,25.04
2023-02-02T04:17:42.992Z,25.06
2023-02-02T04:20:13.017Z,25.04
2023-02-02T04:22:43.009Z,25.00
2023-02-02T04:25:12.631Z,24.99
2023-02-02T04:27:42.393Z,24.97
2023-02-02T04:30:12.351Z,24.94
2023-02-02T04:32:42.317Z,24.96
2023-02-02T04:35:11.945Z,24.70
2023-02-02T04:37:42.441Z,24.55
2023-02-02T04:40:13.178Z,24.58
2023-02-02T04:42:43.267Z,24.65
2023-02-02T04:45:13.361Z,24.75
2023-02-02T04:47:43.475Z,24.69
2023-02-02T04:50:13.488Z,24.55
2023-02-02T04:52:44.432Z,24.62
2023-02-02T04:55:14.587Z,24.58
2023-02-02T04:57:44.865Z,24.40
2023-02-02T05:00:15.563Z,24.40
2023-02-02T05:02:45.773Z,24.53
2023-02-02T05:05:16.550Z,24.62
2023-02-02T05:07:46.785Z,24.59
2023-02-02T05:10:16.857Z,24.53
2023-02-02T05:12:46.518Z,24.52
2023-02-02T05:15:16.367Z,24.63
2023-02-02T05:17:46.551Z,24.66
2023-02-02T05:20:16.750Z,24.66
2023-02-02T05:22:49.912Z,24.62
2023-02-02T05:25:20.284Z,24.40
2023-02-02T05:27:49.662Z,24.32
2023-02-02T05:30:19.737Z,24.48
2023-02-02T05:32:49.769Z,24.58
2023-02-02T05:35:19.715Z,24.62
2023-02-02T05:37:49.878Z,24.63
2023-02-02T05:40:20.194Z,24.65
2023-02-02T05:42:50.631Z,24.65
2023-02-02T05:45:20.796Z,24.66
2023-02-02T05:47:50.952Z,24.62
2023-02-02T05:50:21.135Z,24.62
2023-02-02T05:53:04.642Z,24.59
2023-02-02T05:55:34.838Z,24.59
2023-02-02T05:58:04.806Z,24.58
2023-02-02T06:00:34.682Z,24.48
2023-02-02T06:03:04.733Z,24.47
2023-02-02T06:05:34.212Z,24.42
2023-02-02T06:08:03.971Z,24.48
2023-02-02T06:10:33.609Z,24.49
2023-02-02T06:13:03.304Z,24.48
2023-02-02T06:15:34.344Z,24.48
2023-02-02T06:18:04.563Z,24.48
2023-02-02T06:20:35.337Z,24.48
2023-02-02T06:23:05.764Z,24.42
2023-02-02T06:25:35.905Z,24.42
2023-02-02T06:28:06.827Z,24.30
2023-02-02T06:30:37.035Z,24.22
2023-02-02T06:33:08.440Z,24.29
2023-02-02T06:35:38.767Z,24.30
2023-02-02T06:38:08.883Z,24.35
2023-02-02T06:40:38.770Z,24.36
2023-02-02T06:43:10.176Z,24.29
2023-02-02T06:45:41.438Z,24.28
2023-02-02T06:48:12.143Z,24.18
2023-02-02T06:50:42.288Z,24.05
2023-02-02T06:53:11.835Z,24.09
2023-02-02T06:55:41.603Z,24.21
2023-02-02T06:58:11.502Z,24.22
2023-02-02T07:00:41.047Z,24.17
2023-02-02T07:03:11.020Z,24.11
2023-02-02T07:05:40.745Z,24.17
2023-02-02T07:08:11.367Z,24.17
2023-02-02T07:11:13.893Z,24.11
2023-02-02T07:13:35.661Z,24.14
2023-02-02T07:16:07.570Z,24.17
2023-02-02T07:18:40.968Z,24.18
2023-02-02T07:21:17.415Z,24.21
2023-02-02T07:23:47.905Z,24.14
2023-02-02T07:26:19.697Z,24.15
2023-02-02T07:28:50.048Z,24.17
2023-02-02T07:31:28.887Z,24.15
2023-02-02T07:33:59.001Z,24.12
2023-02-02T07:36:28.631Z,24.11
2023-02-02T07:39:03.489Z,24.14
2023-02-02T07:41:35.799Z,24.11
2023-02-02T07:44:06.943Z,24.05
2023-02-02T07:46:37.130Z,24.04
2023-02-02T07:49:08.613Z,24.02
2023-02-02T07:51:40.923Z,24.04
2023-02-02T07:54:12.904Z,24.01
2023-02-02T07:56:42.658Z,24.00
2023-02-02T07:59:12.878Z,23.97
2023-02-02T08:01:43.076Z,23.97
2023-02-02T08:04:13.028Z,23.94
2023-02-02T08:06:43.315Z,23.93
2023-02-02T08:09:13.438Z,23.85
2023-02-02T08:11:43.056Z,23.75
2023-02-02T08:14:15.432Z,23.75
2023-02-02T08:16:45.500Z,23.80
2023-02-02T08:19:15.448Z,23.81
2023-02-02T08:21:45.011Z,23.80
2023-02-02T08:24:15.037Z,23.77
2023-02-02T08:26:44.647Z,23.75
2023-02-02T08:29:18.320Z,23.81
2023-02-02T08:31:48.871Z,23.80
2023-02-02T08:34:19.036Z,23.74
2023-02-02T08:36:48.568Z,23.71
2023-02-02T08:39:18.298Z,23.77
2023-02-02T08:41:49.005Z,23.77
2023-02-02T08:44:19.518Z,23.78
2023-02-02T08:46:49.926Z,23.73
2023-02-02T08:49:20.111Z,23.57
2023-02-02T08:51:49.716Z,23.64
2023-02-02T08:54:19.543Z,23.70
2023-02-02T08:56:49.108Z,23.74
2023-02-02T08:59:18.989Z,23.71
2023-02-02T09:01:49.135Z,23.50
2023-02-02T09:04:19.472Z,23.40
2023-02-02T09:06:49.876Z,23.42
2023-02-02T09:09:19.618Z,23.46
2023-02-02T09:11:49.440Z,23.39
2023-02-02T09:14:19.100Z,23.29
2023-02-02T09:16:49.222Z,23.31
2023-02-02T09:19:19.475Z,23.39
2023-02-02T09:21:52.365Z,23.29
2023-02-02T09:24:22.492Z,23.24
2023-02-02T09:26:52.246Z,23.31
2023-02-02T09:29:22.531Z,23.31
2023-02-02T09:31:52.666Z,23.40
2023-02-02T09:34:22.903Z,23.57
2023-02-02T09:36:53.007Z,23.60
2023-02-02T09:39:22.990Z,23.60
2023-02-02T09:42:30.327Z,23.60
2023-02-02T09:45:00.455Z,23.61
2023-02-02T09:47:46.823Z,23.68
2023-02-02T09:50:41.220Z,23.82
2023-02-02T09:53:38.451Z,23.97
2023-02-02T09:56:25.933Z,24.08
2023-02-02T09:59:10.289Z,24.02
2023-02-02T10:01:51.532Z,24.12
2023-02-02T10:04:36.565Z,24.25
2023-02-02T10:07:20.645Z,24.33
2023-02-02T10:09:56.460Z,24.36
2023-02-02T10:12:29.528Z,24.42
2023-02-02T10:15:24.212Z,24.55
2023-02-02T10:18:06.743Z,24.62
2023-02-02T10:20:45.895Z,24.68
2023-02-02T10:23:39.290Z,24.69
2023-02-02T10:26:28.453Z,24.75
2023-02-02T10:29:15.166Z,24.77
2023-02-02T10:32:08.019Z,24.89
2023-02-02T10:35:06.833Z,24.82
2023-02-02T10:38:04.539Z,24.86
2023-02-02T10:40:49.475Z,24.97
2023-02-02T10:43:56.106Z,25.00
2023-02-02T10:46:35.286Z,25.07
2023-02-02T10:49:29.822Z,25.11
2023-02-02T10:52:22.385Z,25.17
2023-02-02T10:55:17.058Z,25.30
2023-02-02T10:58:08.844Z,25.41
2023-02-02T11:00:47.785Z,25.44
2023-02-02T11:03:20.928Z,25.50
2023-02-02T11:06:09.096Z,25.54
2023-02-02T11:08:41.471Z,25.61
2023-02-02T11:11:25.051Z,25.68
2023-02-02T11:14:10.574Z,25.65
2023-02-02T11:16:46.531Z,25.72
2023-02-02T11:19:24.603Z,25.77
2023-02-02T11:21:59.798Z,25.86
2023-02-02T11:24:30.377Z,25.95
2023-02-02T11:26:59.929Z,26.06
2023-02-02T11:29:42.474Z,26.05
2023-02-02T11:32:22.342Z,26.13
2023-02-02T11:35:14.856Z,26.30
2023-02-02T11:38:04.668Z,26.33
2023-02-02T11:41:06.339Z,26.39
2023-02-02T11:43:57.770Z,26.63
2023-02-02T11:46:34.068Z,26.77
2023-02-02T11:49:05.442Z,26.97
2023-02-02T11:51:37.035Z,27.05
2023-02-02T11:54:14.164Z,27.15
2023-02-02T11:56:49.808Z,27.22
2023-02-02T11:59:29.824Z,27.20
2023-02-02T12:02:33.199Z,27.38
2023-02-02T12:05:12.159Z,27.46
2023-02-02T12:07:46.439Z,27.51
2023-02-02T12:10:22.749Z,27.61
2023-02-02T12:13:08.259Z,27.70
2023-02-02T12:16:19.457Z,27.82
2023-02-02T12:19:43.726Z,27.90
2023-02-02T12:22:32.024Z,27.90
2023-02-02T12:25:16.774Z,28.14
2023-02-02T12:27:57.406Z,28.16
2023-02-02T12:30:46.199Z,28.44
2023-02-02T12:33:57.157Z,28.50
2023-02-02T12:36:47.625Z,28.67
2023-02-02T12:40:13.760Z,28.81
2023-02-02T12:42:46.567Z,28.69
2023-02-02T12:45:54.695Z,28.92
2023-02-02T12:48:31.472Z,28.82
2023-02-02T12:51:11.539Z,29.12
2023-02-02T12:54:32.756Z,29.15
2023-02-02T12:56:58.137Z,29.26
2023-02-02T12:59:49.597Z,29.32
2023-02-02T13:02:37.885Z,29.35
2023-02-02T13:05:26.048Z,29.59
2023-02-02T13:08:06.955Z,29.66
2023-02-02T13:10:44.361Z,29.84
2023-02-02T13:13:26.078Z,30.03
2023-02-02T13:16:12.045Z,29.88
2023-02-02T13:18:49.957Z,29.85
2023-02-02T13:21:24.339Z,30.05
2023-02-02T13:24:00.382Z,30.21
2023-02-02T13:26:39.941Z,30.36
2023-02-02T13:29:29.704Z,30.39
2023-02-02T13:32:11.552Z,30.54
2023-02-02T13:34:56.554Z,30.74
2023-02-02T13:37:47.109Z,30.90
2023-02-02T13:40:23.143Z,30.90
2023-02-02T13:43:10.191Z,30.86
2023-02-02T13:46:04.701Z,30.93
2023-02-02T13:49:01.572Z,30.93
2023-02-02T13:52:09.344Z,30.38
2023-02-02T13:54:44.718Z,29.93
2023-02-02T13:57:30.996Z,29.91
2023-02-02T14:00:23.958Z,30.75
2023-02-02T14:02:54.811Z,31.12
2023-02-02T14:05:34.363Z,31.44
2023-02-02T14:08:19.076Z,31.71
2023-02-02T14:10:55.328Z,31.57
2023-02-02T14:14:08.344Z,31.64
2023-02-02T14:16:38.540Z,31.85
2023-02-02T14:19:35.693Z,31.92
2023-02-02T14:22:13.055Z,31.95
2023-02-02T14:24:51.725Z,31.85
2023-02-02T14:27:21.880Z,31.87
2023-02-02T14:29:51.992Z,31.98
2023-02-02T14:32:30.601Z,32.24
2023-02-02T14:35:27.418Z,31.98
2023-02-02T14:38:30.237Z,32.26
2023-02-02T14:41:43.480Z,32.43
2023-02-02T14:44:13.620Z,32.80
2023-02-02T14:46:49.401Z,32.65
2023-02-02T14:49:27.082Z,32.79
2023-02-02T14:52:02.479Z,32.62
2023-02-02T14:54:37.539Z,32.73
2023-02-02T14:57:26.690Z,32.82
2023-02-02T15:00:01.165Z,32.52
2023-02-02T15:02:31.598Z,32.70
2023-02-02T15:05:35.356Z,33.16
2023-02-02T15:08:28.132Z,32.55
2023-02-02T15:11:02.952Z,32.79
2023-02-02T15:13:39.003Z,32.52
2023-02-02T15:16:15.172Z,33.00
2023-02-02T15:18:58.723Z,33.18
2023-02-02T15:21:30.843Z,33.31
2023-02-02T15:24:01.613Z,33.33
2023-02-02T15:26:46.943Z,33.34
2023-02-02T15:29:31.182Z,32.93
2023-02-02T15:32:02.572Z,32.70
2023-02-02T15:34:47.524Z,33.16
2023-02-02T15:37:25.121Z,33.44
2023-02-02T15:40:01.260Z,33.69
2023-02-02T15:42:55.462Z,33.61
2023-02-02T15:45:44.570Z,33.84
2023-02-02T15:48:30.848Z,33.99
2023-02-02T15:51:08.694Z,34.09
2023-02-02T15:53:45.685Z,33.99
2023-02-02T15:56:24.215Z,34.01
2023-02-02T15:58:56.929Z,34.04
2023-02-02T16:01:30.899Z,33.92
2023-02-02T16:04:10.425Z,34.06
2023-02-02T16:06:40.662Z,34.29
2023-02-02T16:09:28.089Z,34.46
2023-02-02T16:11:58.346Z,34.32
2023-02-02T16:14:28.506Z,34.13
2023-02-02T16:17:19.867Z,34.43
2023-02-02T16:19:58.687Z,34.93
2023-02-02T16:22:29.265Z,34.13
2023-02-02T16:25:03.918Z,34.22
2023-02-02T16:27:34.770Z,34.56
2023-02-02T16:30:10.340Z,34.77
2023-02-02T16:32:40.701Z,34.73
2023-02-02T16:35:35.299Z,35.03
2023-02-02T16:38:33.109Z,34.96
2023-02-02T16:41:05.327Z,35.18
2023-02-02T16:43:36.611Z,34.45
2023-02-02T16:46:10.678Z,34.37
2023-02-02T16:48:42.643Z,34.79
2023-02-02T16:51:32.887Z,34.42
2023-02-02T16:54:19.187Z,33.74
2023-02-02T16:57:01.115Z,33.64
2023-02-02T16:59:36.698Z,33.51
2023-02-02T17:02:29.461Z,33.54
2023-02-02T17:05:18.780Z,33.33
2023-02-02T17:07:56.962Z,33.27
2023-02-02T17:10:34.247Z,33.17
2023-02-02T17:13:26.140Z,33.02
2023-02-02T17:15:56.210Z,32.82
2023-02-02T17:18:26.569Z,32.77
2023-02-02T17:21:05.339Z,32.70
2023-02-02T17:23:38.378Z,32.56
2023-02-02T17:26:10.504Z,32.43
2023-02-02T17:28:43.741Z,32.43
2023-02-02T17:31:17.062Z,32.28
2023-02-02T17:33:47.281Z,32.21
2023-02-02T17:36:17.495Z,31.99
2023-02-02T17:38:47.672Z,31.98
2023-02-02T17:41:17.809Z,31.94
2023-02-02T17:43:47.908Z,31.82
2023-02-02T17:46:18.152Z,31.71
2023-02-02T17:48:48.354Z,31.67
2023-02-02T17:51:19.134Z,31.74
2023-02-02T17:53:50.342Z,31.73
2023-02-02T17:56:21.907Z,31.78
2023-02-02T17:58:52.051Z,31.81
2023-02-02T18:01:22.211Z,31.80
2023-02-02T18:03:52.456Z,31.80
2023-02-02T18:06:22.840Z,31.65
2023-02-02T18:08:53.716Z,31.61
2023-02-02T18:11:23.591Z,31.61
2023-02-02T18:13:54.291Z,31.78
2023-02-02T18:16:24.461Z,31.74
2023-02-02T18:18:55.323Z,32.08
2023-02-02T18:21:27.591Z,32.62
2023-02-02T18:23:58.157Z,32.73
2023-02-02T18:26:28.374Z,32.52
2023-02-02T18:29:00.374Z,32.49
2023-02-02T18:31:30.480Z,32.32
2023-02-02T18:34:00.564Z,31.94
2023-02-02T18:36:29.947Z,31.68
2023-02-02T18:38:59.955Z,31.43
2023-02-02T18:41:30.027Z,31.26
2023-02-02T18:44:00.226Z,31.13
2023-02-02T18:46:30.341Z,31.02
2023-02-02T18:49:00.491Z,31.00
2023-02-02T18:51:31.476Z,30.83
2023-02-02T18:54:01.748Z,30.79
2023-02-02T18:56:32.163Z,30.74
2023-02-02T18:59:02.126Z,30.69
2023-02-02T19:01:32.283Z,30.68
2023-02-02T19:04:02.903Z,30.51
2023-02-02T19:06:51.310Z,30.44
2023-02-02T19:09:21.944Z,30.39
2023-02-02T19:11:56.272Z,30.25
2023-02-02T19:14:33.271Z,30.17
2023-02-02T19:17:31.176Z,30.17
2023-02-02T19:20:08.899Z,30.11
2023-02-02T19:22:39.311Z,29.93
2023-02-02T19:25:13.658Z,29.83
2023-02-02T19:27:43.665Z,29.77
2023-02-02T19:30:25.079Z,29.78
2023-02-02T19:32:55.644Z,29.73
2023-02-02T19:35:28.173Z,29.60
2023-02-02T19:38:02.983Z,29.60
2023-02-02T19:40:33.128Z,29.64
2023-02-02T19:43:15.300Z,29.64
2023-02-02T19:45:46.909Z,29.66
2023-02-02T19:48:32.876Z,29.66
2023-02-02T19:51:22.628Z,29.66
2023-02-02T19:54:02.675Z,29.62
2023-02-02T19:56:38.954Z,29.57
2023-02-02T19:59:21.160Z,29.43
2023-02-02T20:01:52.011Z,29.37
2023-02-02T20:04:22.184Z,29.37
2023-02-02T20:06:59.196Z,29.32
2023-02-02T20:09:36.396Z,29.46
2023-02-02T20:12:23.792Z,29.81
2023-02-02T20:14:54.272Z,29.74
2023-02-02T20:17:33.899Z,29.64
2023-02-02T20:20:06.993Z,29.45
2023-02-02T20:22:37.049Z,29.32
2023-02-02T20:25:10.227Z,29.25
2023-02-02T20:27:40.303Z,29.20
2023-02-02T20:30:33.723Z,29.29
2023-02-02T20:33:05.664Z,29.36
2023-02-02T20:35:40.336Z,29.39
2023-02-02T20:38:30.144Z,29.53
2023-02-02T20:41:00.823Z,29.84
2023-02-02T20:43:30.897Z,29.98
2023-02-02T20:46:01.184Z,29.85
2023-02-02T20:48:31.561Z,29.94
2023-02-02T20:51:01.762Z,30.05
2023-02-02T20:53:31.342Z,30.31
2023-02-02T20:56:03.260Z,30.14
2023-02-02T20:58:33.384Z,30.24
2023-02-02T21:01:06.510Z,30.21
2023-02-02T21:03:36.944Z,30.83
2023-02-02T21:06:07.644Z,30.49
2023-02-02T21:08:37.886Z,30.03
2023-02-02T21:11:08.743Z,29.63
2023-02-02T21:13:39.983Z,29.26
2023-02-02T21:16:11.179Z,28.96
2023-02-02T21:18:41.184Z,28.88
2023-02-02T21:21:11.502Z,28.92
2023-02-02T21:23:43.462Z,28.98
2023-02-02T21:26:14.404Z,28.94
2023-02-02T21:28:44.547Z,28.92
2023-02-02T21:31:17.313Z,28.76
2023-02-02T21:33:51.020Z,28.54
2023-02-02T21:36:30.155Z,28.41
2023-02-02T21:39:28.017Z,28.28
2023-02-02T21:42:10.280Z,28.12
2023-02-02T21:44:41.199Z,28.04
2023-02-02T21:47:36.538Z,27.90
2023-02-02T21:50:21.367Z,27.76
2023-02-02T21:52:51.496Z,27.70
2023-02-02T21:55:34.793Z,27.56
2023-02-02T21:58:27.634Z,27.48
2023-02-02T22:01:01.631Z,27.46
2023-02-02T22:03:38.511Z,27.45
2023-02-02T22:06:29.212Z,27.34
2023-02-02T22:09:09.522Z,27.28
2023-02-02T22:11:49.411Z,27.21
2023-02-02T22:14:24.216Z,27.18
2023-02-02T22:16:58.450Z,27.12
2023-02-02T22:19:40.787Z,27.07
2023-02-02T22:22:12.269Z,27.00
2023-02-02T22:24:42.765Z,27.04
2023-02-02T22:27:27.343Z,26.94
2023-02-02T22:30:04.200Z,26.91
2023-02-02T22:32:34.206Z,26.87
2023-02-02T22:35:03.737Z,26.80
2023-02-02T22:37:33.462Z,26.77
2023-02-02T22:40:03.515Z,26.71
2023-02-02T22:42:33.594Z,26.67
2023-02-02T22:45:03.503Z,26.67
2023-02-02T22:47:33.646Z,26.71
2023-02-02T22:50:03.825Z,26.67
2023-02-02T22:52:33.121Z,26.63
2023-02-02T22:55:02.863Z,26.61
2023-02-02T22:57:32.399Z,26.57
2023-02-02T23:00:02.232Z,26.57
2023-02-02T23:02:32.338Z,26.59
2023-02-02T23:05:03.847Z,26.54
2023-02-02T23:07:35.305Z,26.50
2023-02-02T23:10:06.768Z,26.50
2023-02-02T23:12:36.939Z,26.53
2023-02-02T23:15:07.622Z,26.50
2023-02-02T23:17:37.660Z,26.44
2023-02-02T23:20:10.045Z,26.46
2023-02-02T23:22:40.610Z,26.40
2023-02-02T23:25:11.651Z,26.42
2023-02-02T23:27:42.091Z,26.40
2023-02-02T23:30:14.622Z,26.40
2023-02-02T23:32:44.990Z,26.42
2023-02-02T23:35:15.014Z,26.37
2023-02-02T23:37:44.674Z,26.33
2023-02-02T23:40:14.834Z,26.36
2023-02-02T23:42:45.021Z,26.35
2023-02-02T23:45:16.225Z,26.32
2023-02-02T23:47:46.703Z,26.30
2023-02-02T23:50:17.077Z,26.30
2023-02-02T23:52:47.513Z,26.29
2023-02-02T23:55:17.750Z,26.28
2023-02-02T23:57:47.864Z,26.28
